createdAt,value
2024-02-17T00:00:52.313Z,101319.25
2024-02-17T00:03:54.769Z,101321.97
2024-02-17T00:06:57.896Z,101325.47
2024-02-17T00:09:59.896Z,101328.75
2024-02-17T00:13:02.160Z,101316.13
2024-02-17T00:16:04.046Z,101321.69
2024-02-17T00:19:06.383Z,101312.19
2024-02-17T00:22:08.534Z,101314.25
2024-02-17T00:25:10.794Z,101315.72
2024-02-17T00:28:12.548Z,101323.38
2024-02-17T00:31:14.381Z,101317.88
2024-02-17T00:34:16.958Z,101322.19
2024-02-17T00:37:19.217Z,101318.00
2024-02-17T00:40:21.120Z,101316.19
2024-02-17T00:43:24.212Z,101315.72
2024-02-17T00:46:26.399Z,101313.38
2024-02-17T00:49:28.332Z,101312.63
2024-02-17T00:52:30.113Z,101312.22
2024-02-17T00:55:32.041Z,101316.25
2024-02-17T00:58:33.831Z,101318.91
2024-02-17T01:01:39.661Z,101312.19
2024-02-17T01:04:42.556Z,101313.72
2024-02-17T01:07:44.593Z,101312.13
2024-02-17T01:10:46.831Z,101309.06
2024-02-17T01:13:48.532Z,101304.91
2024-02-17T01:16:50.715Z,101309.41
2024-02-17T01:19:52.507Z,101312.94
2024-02-17T01:22:54.890Z,101315.28
2024-02-17T01:25:56.668Z,101310.03
2024-02-17T01:28:58.598Z,101304.06
2024-02-17T01:32:00.773Z,101303.69
2024-02-17T01:35:02.881Z,101309.28
2024-02-17T01:38:05.436Z,101307.28
2024-02-17T01:41:07.415Z,101275.69
2024-02-17T01:44:09.375Z,101309.47
2024-02-17T01:47:11.755Z,101306.56
2024-02-17T01:50:14.425Z,101307.53
2024-02-17T01:53:16.779Z,101303.88
2024-02-17T01:56:18.753Z,101307.09
2024-02-17T01:59:21.189Z,101303.53
2024-02-17T02:02:23.205Z,101305.72
2024-02-17T02:05:25.093Z,101308.28
2024-02-17T02:08:27.077Z,101316.66
2024-02-17T02:11:29.472Z,101320.50
2024-02-17T02:14:31.649Z,101327.28
2024-02-17T02:17:34.000Z,101323.34
2024-02-17T02:20:36.336Z,101320.25
2024-02-17T02:23:38.126Z,101316.09
2024-02-17T02:26:40.886Z,101316.75
2024-02-17T02:29:46.869Z,101311.72
2024-02-17T02:32:50.216Z,101325.75
2024-02-17T02:35:52.002Z,101316.03
2024-02-17T02:38:56.673Z,101310.44
2024-02-17T02:41:58.589Z,101310.75
2024-02-17T02:45:00.932Z,101313.53
2024-02-17T02:48:03.331Z,101308.50
2024-02-17T02:51:05.410Z,101308.84
2024-02-17T02:54:07.999Z,101309.06
2024-02-17T02:57:09.936Z,101310.03
2024-02-17T03:00:12.466Z,101305.75
2024-02-17T03:03:14.701Z,101302.22
2024-02-17T03:06:16.444Z,101311.97
2024-02-17T03:09:18.208Z,101304.91
2024-02-17T03:12:20.416Z,101311.53
2024-02-17T03:15:22.089Z,101311.75
2024-02-17T03:18:23.932Z,101317.22
2024-02-17T03:21:25.786Z,101330.03
2024-02-17T03:24:27.611Z,101328.44
2024-02-17T03:27:29.365Z,101325.53
2024-02-17T03:30:31.386Z,101302.47
2024-02-17T03:33:33.375Z,101327.72
2024-02-17T03:36:36.210Z,101330.91
2024-02-17T03:39:38.645Z,101336.16
2024-02-17T03:42:40.481Z,101332.84
2024-02-17T03:45:42.366Z,101340.31
2024-02-17T03:48:44.331Z,101339.56
2024-02-17T03:51:46.212Z,101342.47
2024-02-17T03:54:48.572Z,101341.50
2024-02-17T03:57:50.562Z,101346.41
2024-02-17T04:00:53.320Z,101344.16
2024-02-17T04:03:55.564Z,101346.31
2024-02-17T04:06:57.491Z,101345.47
2024-02-17T04:09:59.704Z,101351.66
2024-02-17T04:13:01.657Z,101344.50
2024-02-17T04:16:03.995Z,101343.09
2024-02-17T04:19:06.055Z,101340.66
2024-02-17T04:22:07.791Z,101347.69
2024-02-17T04:25:09.756Z,101346.84
2024-02-17T04:28:11.427Z,101344.41
2024-02-17T04:31:13.979Z,101347.16
2024-02-17T04:34:16.553Z,101314.91
2024-02-17T04:37:18.349Z,101343.31
2024-02-17T04:40:20.484Z,101353.44
2024-02-17T04:43:22.463Z,101353.69
2024-02-17T04:46:24.719Z,101354.09
2024-02-17T04:49:26.946Z,101358.50
2024-02-17T04:52:28.607Z,101354.97
2024-02-17T04:55:30.578Z,101358.28
2024-02-17T04:58:32.825Z,101359.34
2024-02-17T05:01:35.118Z,101355.69
2024-02-17T05:04:37.539Z,101355.03
2024-02-17T05:07:39.467Z,101360.03
2024-02-17T05:10:41.465Z,101369.13
2024-02-17T05:13:43.385Z,101356.84
2024-02-17T05:16:46.236Z,101360.78
2024-02-17T05:19:48.984Z,101364.41
2024-02-17T05:22:51.150Z,101356.97
2024-02-17T05:25:53.291Z,101364.75
2024-02-17T05:28:54.964Z,101369.81
2024-02-17T05:31:56.663Z,101377.34
2024-02-17T05:34:59.766Z,101370.69
2024-02-17T05:38:01.994Z,101365.37
2024-02-17T05:41:04.558Z,101370.38
2024-02-17T05:44:06.289Z,101384.19
2024-02-17T05:47:08.068Z,101375.31
2024-02-17T05:50:10.175Z,101376.91
2024-02-17T05:53:11.810Z,101381.41
2024-02-17T05:56:13.781Z,101390.09
2024-02-17T05:59:15.573Z,101385.69
2024-02-17T06:02:20.687Z,101389.84
2024-02-17T06:05:22.339Z,101398.91
2024-02-17T06:08:24.305Z,101396.34
2024-02-17T06:11:26.612Z,101402.09
2024-02-17T06:14:28.356Z,101415.34
2024-02-17T06:17:30.341Z,101414.78
2024-02-17T06:20:32.057Z,101413.72
2024-02-17T06:23:33.930Z,101409.91
2024-02-17T06:26:36.152Z,101414.06
2024-02-17T06:29:38.044Z,101422.94
2024-02-17T06:32:40.002Z,101414.53
2024-02-17T06:35:42.249Z,101415.09
2024-02-17T06:38:44.337Z,101429.53
2024-02-17T06:41:46.431Z,101429.13
2024-02-17T06:44:48.649Z,101437.78
2024-02-17T06:47:53.549Z,101445.47
2024-02-17T06:50:56.080Z,101448.97
2024-02-17T06:53:58.250Z,101453.34
2024-02-17T06:57:00.168Z,101446.47
2024-02-17T07:00:01.968Z,101453.13
2024-02-17T07:03:04.777Z,101451.03
2024-02-17T07:06:07.341Z,101445.81
2024-02-17T07:09:09.348Z,101444.97
2024-02-17T07:12:12.028Z,101461.13
2024-02-17T07:15:13.978Z,101456.22
2024-02-17T07:18:15.737Z,101455.03
2024-02-17T07:21:18.220Z,101462.94
2024-02-17T07:24:20.400Z,101452.03
2024-02-17T07:27:22.970Z,101456.97
2024-02-17T07:30:26.083Z,101444.00
2024-02-17T07:33:27.775Z,101444.22
2024-02-17T07:36:29.708Z,101456.00
2024-02-17T07:39:31.699Z,101456.22
2024-02-17T07:42:33.637Z,101459.09
2024-02-17T07:45:35.753Z,101463.38
2024-02-17T07:48:38.227Z,101460.78
2024-02-17T07:51:40.526Z,101468.91
2024-02-17T07:54:42.211Z,101458.38
2024-02-17T07:57:43.987Z,101466.47
2024-02-17T08:00:46.860Z,101459.59
2024-02-17T08:03:48.896Z,101468.34
2024-02-17T08:06:52.848Z,101470.19
2024-02-17T08:09:54.606Z,101470.19
2024-02-17T08:12:56.947Z,101464.88
2024-02-17T08:15:59.264Z,101476.63
2024-02-17T08:19:01.697Z,101474.72
2024-02-17T08:22:04.102Z,101470.66
2024-02-17T08:25:06.722Z,101462.66
2024-02-17T08:28:08.471Z,101469.38
2024-02-17T08:31:10.754Z,101471.37
2024-02-17T08:34:13.049Z,101473.44
2024-02-17T08:37:15.328Z,101473.84
2024-02-17T08:40:17.450Z,101470.06
2024-02-17T08:43:19.435Z,101479.22
2024-02-17T08:46:21.349Z,101474.50
2024-02-17T08:49:23.315Z,101475.13
2024-02-17T08:52:25.131Z,101480.34
2024-02-17T08:55:27.025Z,101482.19
2024-02-17T08:58:28.749Z,101491.09
2024-02-17T09:01:30.541Z,101488.91
2024-02-17T09:04:32.331Z,101480.38
2024-02-17T09:07:35.153Z,101479.28
2024-02-17T09:10:37.231Z,101461.22
2024-02-17T09:13:39.009Z,101468.25
2024-02-17T09:16:40.692Z,101466.47
2024-02-17T09:19:43.137Z,101471.56
2024-02-17T09:22:44.927Z,101470.94
2024-02-17T09:25:46.619Z,101472.88
2024-02-17T09:28:48.291Z,101473.84
2024-02-17T09:31:50.161Z,101470.50
2024-02-17T09:34:52.542Z,101470.72
2024-02-17T09:37:54.458Z,101469.25
2024-02-17T09:40:56.674Z,101467.34
2024-02-17T09:43:58.806Z,101469.41
2024-02-17T09:47:00.891Z,101463.09
2024-02-17T09:50:04.264Z,101470.97
2024-02-17T09:53:06.336Z,101475.56
2024-02-17T09:56:08.185Z,101474.13
2024-02-17T09:59:09.886Z,101481.06
2024-02-17T10:02:12.409Z,101478.13
2024-02-17T10:05:15.165Z,101478.69
2024-02-17T10:08:16.952Z,101485.63
2024-02-17T10:11:19.088Z,101483.84
2024-02-17T10:14:25.494Z,101477.06
2024-02-17T10:17:27.375Z,101484.37
2024-02-17T10:20:29.236Z,101476.53
2024-02-17T10:23:30.941Z,101486.78
2024-02-17T10:26:33.788Z,101483.50
2024-02-17T10:29:35.548Z,101480.09
2024-02-17T10:32:37.698Z,101473.56
2024-02-17T10:35:39.964Z,101478.44
2024-02-17T10:38:41.863Z,101480.00
2024-02-17T10:41:47.251Z,101471.19
2024-02-17T10:44:49.557Z,101464.66
2024-02-17T10:48:01.331Z,101459.25
2024-02-17T10:51:03.632Z,101469.31
2024-02-17T10:54:09.372Z,101464.41
2024-02-17T10:57:14.685Z,101464.47
2024-02-17T11:00:17.277Z,101464.22
2024-02-17T11:03:24.871Z,101461.91
2024-02-17T11:06:27.381Z,101466.25
2024-02-17T11:09:29.920Z,101463.28
2024-02-17T11:12:33.654Z,101457.03
2024-02-17T11:15:58.640Z,101458.16
2024-02-17T11:19:00.593Z,101465.13
2024-02-17T11:22:03.089Z,101465.53
2024-02-17T11:25:05.587Z,101466.84
2024-02-17T11:28:22.071Z,101457.72
2024-02-17T11:31:31.545Z,101452.19
2024-02-17T11:34:35.540Z,101452.31
2024-02-17T11:37:40.591Z,101456.63
2024-02-17T11:40:44.010Z,101460.97
2024-02-17T11:43:46.949Z,101451.72
2024-02-17T11:46:49.667Z,101463.13
2024-02-17T11:49:51.802Z,101451.97
2024-02-17T11:52:53.629Z,101454.41
2024-02-17T11:56:02.597Z,101446.28
2024-02-17T11:59:04.323Z,101450.72
2024-02-17T12:02:07.321Z,101450.87
2024-02-17T12:05:09.692Z,101455.31
2024-02-17T12:08:11.495Z,101450.94
2024-02-17T12:11:13.518Z,101451.75
2024-02-17T12:14:15.599Z,101459.72
2024-02-17T12:17:17.437Z,101455.81
2024-02-17T12:20:20.205Z,101459.72
2024-02-17T12:23:22.531Z,101458.22
2024-02-17T12:26:33.443Z,101447.72
2024-02-17T12:29:51.349Z,101450.87
2024-02-17T12:33:04.894Z,101450.91
2024-02-17T12:36:07.081Z,101443.87
2024-02-17T12:39:09.974Z,101441.41
2024-02-17T12:42:12.271Z,101443.31
2024-02-17T12:45:24.560Z,101436.31
2024-02-17T12:48:26.748Z,101440.34
2024-02-17T12:51:30.774Z,101437.28
2024-02-17T12:54:33.061Z,101438.16
2024-02-17T12:57:34.867Z,101449.16
2024-02-17T13:00:36.789Z,101445.38
2024-02-17T13:03:38.464Z,101438.81
2024-02-17T13:06:40.419Z,101434.63
2024-02-17T13:09:42.343Z,101434.63
2024-02-17T13:12:44.551Z,101441.13
2024-02-17T13:15:46.492Z,101440.34
2024-02-17T13:18:49.120Z,101440.37
2024-02-17T13:21:51.495Z,101447.41
2024-02-17T13:24:53.333Z,101442.22
2024-02-17T13:27:55.748Z,101448.66
2024-02-17T13:30:57.598Z,101451.00
2024-02-17T13:33:59.759Z,101455.50
2024-02-17T13:37:04.167Z,101455.91
2024-02-17T13:40:07.617Z,101468.81
2024-02-17T13:43:09.542Z,101463.03
2024-02-17T13:46:12.140Z,101464.88
2024-02-17T13:49:14.845Z,101465.16
2024-02-17T13:52:17.177Z,101473.25
2024-02-17T13:55:19.760Z,101477.59
2024-02-17T13:58:21.670Z,101492.59
2024-02-17T14:01:23.408Z,101493.97
2024-02-17T14:04:25.746Z,101501.09
2024-02-17T14:07:28.354Z,101492.88
2024-02-17T14:10:30.076Z,101492.47
2024-02-17T14:13:31.921Z,101501.97
2024-02-17T14:16:34.156Z,101498.59
2024-02-17T14:19:36.247Z,101494.91
2024-02-17T14:22:37.956Z,101492.50
2024-02-17T14:25:39.743Z,101498.75
2024-02-17T14:28:42.399Z,101506.81
2024-02-17T14:31:44.411Z,101511.75
2024-02-17T14:34:46.560Z,101509.19
2024-02-17T14:37:48.287Z,101518.41
2024-02-17T14:40:50.415Z,101524.81
2024-02-17T14:43:52.708Z,101529.84
2024-02-17T14:46:54.916Z,101531.09
2024-02-17T14:49:57.451Z,101535.63
2024-02-17T14:52:59.558Z,101541.53
2024-02-17T14:56:01.426Z,101551.13
2024-02-17T14:59:03.513Z,101540.00
2024-02-17T15:02:06.001Z,101547.81
2024-02-17T15:05:08.776Z,101536.34
2024-02-17T15:08:10.763Z,101548.66
2024-02-17T15:11:13.070Z,101561.28
2024-02-17T15:14:14.788Z,101575.16
2024-02-17T15:17:16.953Z,101568.59
2024-02-17T15:20:19.236Z,101575.63
2024-02-17T15:23:21.066Z,101574.72
2024-02-17T15:26:22.888Z,101571.75
2024-02-17T15:29:24.643Z,101560.66
2024-02-17T15:32:26.893Z,101583.44
2024-02-17T15:35:29.179Z,101587.66
2024-02-17T15:38:31.422Z,101589.22
2024-02-17T15:41:33.675Z,101597.44
2024-02-17T15:44:35.341Z,101599.28
2024-02-17T15:47:37.036Z,101597.59
2024-02-17T15:50:39.362Z,101591.22
2024-02-17T15:53:41.633Z,101600.09
2024-02-17T15:56:43.392Z,101599.87
2024-02-17T15:59:45.963Z,101605.78
2024-02-17T16:02:49.381Z,101614.56
2024-02-17T16:05:51.555Z,101609.22
2024-02-17T16:08:53.628Z,101607.28
2024-02-17T16:11:55.680Z,101615.84
2024-02-17T16:14:59.481Z,101616.34
2024-02-17T16:18:02.549Z,101619.03
2024-02-17T16:21:06.847Z,101629.44
2024-02-17T16:24:09.307Z,101637.00
2024-02-17T16:27:12.329Z,101637.37
2024-02-17T16:30:14.463Z,101642.16
2024-02-17T16:33:16.707Z,101657.28
2024-02-17T16:36:20.140Z,101665.50
2024-02-17T16:39:22.314Z,101672.47
2024-02-17T16:42:24.052Z,101678.44
2024-02-17T16:45:25.889Z,101676.00
2024-02-17T16:48:28.324Z,101682.22
2024-02-17T16:51:32.843Z,101688.19
2024-02-17T16:54:36.945Z,101697.09
2024-02-17T16:57:38.740Z,101696.75
2024-02-17T17:00:41.027Z,101693.94
2024-02-17T17:03:42.894Z,101710.00
2024-02-17T17:06:44.985Z,101707.06
2024-02-17T17:09:46.874Z,101705.59
2024-02-17T17:12:48.681Z,101713.41
2024-02-17T17:15:50.431Z,101715.22
2024-02-17T17:18:53.166Z,101715.56
2024-02-17T17:21:55.264Z,101705.94
2024-02-17T17:24:57.101Z,101714.84
2024-02-17T17:27:58.956Z,101715.19
2024-02-17T17:31:01.315Z,101717.87
2024-02-17T17:34:03.691Z,101712.97
2024-02-17T17:37:05.543Z,101713.25
2024-02-17T17:40:08.271Z,101708.97
2024-02-17T17:43:11.258Z,101719.56
2024-02-17T17:46:13.614Z,101715.41
2024-02-17T17:49:15.755Z,101717.63
2024-02-17T17:52:18.059Z,101719.94
2024-02-17T17:55:21.040Z,101711.84
2024-02-17T17:58:22.938Z,101723.94
2024-02-17T18:01:25.025Z,101721.25
2024-02-17T18:04:26.839Z,101729.94
2024-02-17T18:07:28.705Z,101724.06
2024-02-17T18:10:32.896Z,101724.16
2024-02-17T18:13:36.184Z,101715.03
2024-02-17T18:16:37.880Z,101722.88
2024-02-17T18:19:39.663Z,101718.69
2024-02-17T18:22:41.604Z,101720.75
2024-02-17T18:25:43.274Z,101729.13
2024-02-17T18:28:44.994Z,101721.47
2024-02-17T18:31:47.229Z,101717.34
2024-02-17T18:34:49.380Z,101684.69
2024-02-17T18:37:51.644Z,101720.88
2024-02-17T18:40:53.413Z,101723.72
2024-02-17T18:43:55.611Z,101730.41
2024-02-17T18:46:59.013Z,101721.59
2024-02-17T18:50:01.509Z,101723.56
2024-02-17T18:53:03.620Z,101721.94
2024-02-17T18:56:05.932Z,101716.34
2024-02-17T18:59:11.448Z,101722.00
2024-02-17T19:02:14.568Z,101736.28
2024-02-17T19:05:16.345Z,101735.19
2024-02-17T19:08:18.518Z,101736.03
2024-02-17T19:11:20.367Z,101730.22
2024-02-17T19:14:22.672Z,101734.09
2024-02-17T19:17:24.579Z,101730.31
2024-02-17T19:20:26.286Z,101737.91
2024-02-17T19:23:31.257Z,101746.22
2024-02-17T19:26:35.609Z,101744.09
2024-02-17T19:29:37.501Z,101740.69
2024-02-17T19:32:39.740Z,101753.13
2024-02-17T19:35:42.664Z,101751.31
2024-02-17T19:38:44.972Z,101753.75
2024-02-17T19:41:46.697Z,101747.69
2024-02-17T19:44:48.939Z,101756.47
2024-02-17T19:47:51.056Z,101761.84
2024-02-17T19:50:53.011Z,101765.75
2024-02-17T19:53:55.231Z,101762.53
2024-02-17T19:56:57.074Z,101765.69
2024-02-17T19:59:59.532Z,101779.69
2024-02-17T20:03:01.743Z,101783.97
2024-02-17T20:06:05.673Z,101781.97
2024-02-17T20:09:07.356Z,101777.00
2024-02-17T20:12:09.333Z,101784.62
2024-02-17T20:15:11.875Z,101774.84
2024-02-17T20:18:15.143Z,101788.59
2024-02-17T20:21:17.197Z,101787.13
2024-02-17T20:24:19.347Z,101781.53
2024-02-17T20:27:22.163Z,101786.88
2024-02-17T20:30:24.876Z,101799.94
2024-02-17T20:33:26.731Z,101789.87
2024-02-17T20:36:32.398Z,101794.38
2024-02-17T20:39:35.065Z,101802.31
2024-02-17T20:42:36.794Z,101799.37
2024-02-17T20:45:38.524Z,101799.63
2024-02-17T20:48:40.511Z,101806.47
2024-02-17T20:51:42.698Z,101816.47
2024-02-17T20:54:44.849Z,101819.16
2024-02-17T20:57:48.675Z,101824.06
2024-02-17T21:00:50.440Z,101816.97
2024-02-17T21:03:52.472Z,101816.97
2024-02-17T21:06:54.722Z,101829.22
2024-02-17T21:09:56.816Z,101836.06
2024-02-17T21:12:58.794Z,101843.78
2024-02-17T21:16:00.684Z,101843.25
2024-02-17T21:19:03.185Z,101838.50
2024-02-17T21:22:05.042Z,101841.13
2024-02-17T21:25:07.398Z,101836.59
2024-02-17T21:28:09.512Z,101840.34
2024-02-17T21:31:11.245Z,101826.19
2024-02-17T21:34:13.688Z,101822.53
2024-02-17T21:37:15.904Z,101833.25
2024-02-17T21:40:17.664Z,101841.31
2024-02-17T21:43:19.777Z,101839.97
2024-02-17T21:46:21.657Z,101843.37
2024-02-17T21:49:24.923Z,101842.06
2024-02-17T21:52:27.210Z,101849.78
2024-02-17T21:55:29.182Z,101856.50
2024-02-17T21:58:30.899Z,101855.34
2024-02-17T22:01:32.672Z,101853.09
2024-02-17T22:04:35.051Z,101864.91
2024-02-17T22:07:37.043Z,101867.37
2024-02-17T22:10:39.313Z,101861.63
2024-02-17T22:13:41.006Z,101866.63
2024-02-17T22:16:43.559Z,101868.69
2024-02-17T22:19:47.253Z,101864.31
2024-02-17T22:22:50.762Z,101868.72
2024-02-17T22:25:53.163Z,101857.47
2024-02-17T22:28:54.835Z,101863.56
2024-02-17T22:31:56.565Z,101857.78
2024-02-17T22:34:58.537Z,101854.25
2024-02-17T22:38:00.753Z,101852.22
2024-02-17T22:41:03.231Z,101852.09
2024-02-17T22:44:05.308Z,101856.25
2024-02-17T22:47:07.061Z,101865.59
2024-02-17T22:50:09.589Z,101860.56
2024-02-17T22:53:12.188Z,101860.28
2024-02-17T22:56:14.293Z,101865.41
2024-02-17T22:59:15.903Z,101867.53
2024-02-17T23:02:17.872Z,101862.91
2024-02-17T23:05:20.646Z,101860.56
2024-02-17T23:08:22.749Z,101852.59
2024-02-17T23:11:24.958Z,101859.81
2024-02-17T23:14:27.608Z,101850.03
2024-02-17T23:17:30.118Z,101855.28
2024-02-17T23:20:31.926Z,101858.44
2024-02-17T23:23:33.850Z,101855.66
2024-02-17T23:26:35.643Z,101853.94
2024-02-17T23:29:37.580Z,101861.31
2024-02-17T23:32:40.404Z,101860.47
2024-02-17T23:35:42.614Z,101858.75
2024-02-17T23:38:44.463Z,101854.91
2024-02-17T23:41:46.248Z,101858.44
2024-02-17T23:44:48.787Z,101863.81
2024-02-17T23:47:50.781Z,101861.25
2024-02-17T23:50:52.956Z,101860.94
2024-02-17T23:53:54.822Z,101869.22
2024-02-17T23:56:57.120Z,101864.06
2024-02-17T23:59:58.834Z,101856.84
